D/T METAR WX W/DIR W/SPE G/SPE TEMP DEWP
19/03/19 03:20 EGLF 190320Z AUTO 12002KT 9999 SCT041/// 06/05 Q1025 ESE (120°) 2.3mph 6°C 5°C
19/03/19 02:50 EGLF 190250Z AUTO 21002KT 9999 NCD 06/05 Q1025 SSW (210°) 2.3mph 6°C 5°C
19/03/19 02:20 EGLF 190220Z AUTO 22003KT 9999 NCD 06/05 Q1024 SW (220°) 3.5mph 6°C 5°C
19/03/19 01:50 EGLF 190150Z AUTO 21003KT 9999 FEW041/// 06/05 Q1025 SSW (210°) 3.5mph 6°C 5°C
19/03/19 01:20 EGLF 190120Z AUTO 21003KT 9999 NCD 06/05 Q1025 SSW (210°) 3.5mph 6°C 5°C
19/03/19 00:50 EGLF 190050Z AUTO 21002KT 9999 BKN043/// 06/05 Q1024 SSW (210°) 2.3mph 6°C 5°C
19/03/19 00:20 EGLF 190020Z AUTO 22003KT 9999 OVC043/// 06/05 Q1024 SW (220°) 3.5mph 6°C 5°C
18/03/19 23:50 EGLF 182350Z AUTO 21002KT 9999 FEW044/// 06/05 Q1024 SSW (210°) 2.3mph 6°C 5°C
18/03/19 23:20 EGLF 182320Z AUTO 21002KT 9999 NCD 05/05 Q1024 SSW (210°) 2.3mph 5°C 5°C
18/03/19 22:50 EGLF 182250Z AUTO 25004KT 9999 BKN047/// 06/05 Q1024 WSW (250°) 4.6mph 6°C 5°C
18/03/19 22:20 EGLF 182220Z AUTO 22002KT 9999 OVC046/// 06/05 Q1024 SW (220°) 2.3mph 6°C 5°C
18/03/19 21:50 EGLF 182150Z AUTO VRB02KT 9999 FEW038/// OVC047/// 05/05 Q1024 N (0°) 2.3mph 5°C 5°C
18/03/19 21:20 EGLF 182120Z AUTO 22001KT 9999 OVC040/// 05/04 Q1024 SW (220°) 1.2mph 5°C 4°C
18/03/19 20:50 EGLF 182050Z AUTO 21002KT 9999 OVC046/// 05/04 Q1024 SSW (210°) 2.3mph 5°C 4°C
18/03/19 20:20 EGLF 182020Z AUTO 19003KT 9999 OVC046/// 04/04 Q1023 S (190°) 3.5mph 4°C 4°C
18/03/19 19:50 EGLF 181950Z AUTO 17001KT 9999 BKN041/// 04/04 Q1023 S (170°) 1.2mph 4°C 4°C
18/03/19 19:20 EGLF 181920Z AUTO VRB03KT 9999 FEW021/// 05/04 Q1023 N (0°) 3.5mph 5°C 4°C
18/03/19 18:50 EGLF 181850Z AUTO VRB02KT 9999 SCT037/// 06/04 Q1023 N (0°) 2.3mph 6°C 4°C
18/03/19 18:20 EGLF 181820Z AUTO VRB03KT 9999 FEW041/// 07/04 Q1022 N (0°) 3.5mph 7°C 4°C
18/03/19 17:50 EGLF 181750Z AUTO 30005KT 9999 SCT027/// 08/04 Q1022 WNW (300°) 5.8mph 8°C 4°C
18/03/19 17:20 EGLF 181720Z AUTO 30004KT 260V330 9999 -RA SCT021/// SCT033/// 09/05 Q1022 -RA WNW (300°) 4.6mph 9°C 5°C
18/03/19 16:50 EGLF 181650Z AUTO 27006KT 240V310 9999 FEW028/// 10/05 Q1021 W (270°) 6.9mph 10°C 5°C
18/03/19 16:20 EGLF 181620Z AUTO VRB02KT 9999 FEW028/// SCT041/// 09/05 Q1021 N (0°) 2.3mph 9°C 5°C
18/03/19 15:50 EGLF 181550Z VRB01KT 9999 VCSH FEW018 SCT025 08/05 Q1021 RERA VCSH N (0°) 1.2mph 8°C 5°C
18/03/19 15:20 EGLF 181520Z VRB02KT 9999 -RA BKN027 08/05 Q1021 -RA N (0°) 2.3mph 8°C 5°C
18/03/19 14:50 EGLF 181450Z 01007KT 9999 VCSH SCT038 07/04 Q1021 RERA VCSH N (10°) 8.1mph 7°C 4°C
18/03/19 14:20 EGLF 181420Z AUTO 27008KT 240V310 9999 -RA SCT038/// 10/01 Q1021 -RA W (270°) 9.2mph 10°C 1°C
18/03/19 13:50 EGLF 181350Z AUTO 28010KT 240V320 9999 NCD 11/02 Q1021 W (280°) 11.5mph 11°C 2°C
18/03/19 13:20 EGLF 181320Z AUTO 29008KT 260V340 9999 FEW048/// 11/01 Q1021 WNW (290°) 9.2mph 11°C 1°C
18/03/19 12:50 EGLF 181250Z 31008KT 250V350 9999 VCSH FEW034CB SCT043 10/02 Q1021 VCSH NW (310°) 9.2mph 10°C 2°C
18/03/19 12:20 EGLF 181220Z 32008KT 280V350 9999 FEW034CB SCT043 10/02 Q1021 NW (320°) 9.2mph 10°C 2°C
18/03/19 11:20 EGLF 181120Z 27009KT 240V310 9999 SCT029/// SCT034/// 10/03 Q1021 W (270°) 10.4mph 10°C 3°C
18/03/19 10:50 EGLF 181050Z AUTO 28010KT 250V310 9999 FEW029/// 10/03 Q1021 W (280°) 11.5mph 10°C 3°C
18/03/19 09:50 EGLF 180950Z AUTO 29009KT 260V330 9999 SCT024/// 09/03 Q1021 WNW (290°) 10.4mph 9°C 3°C
18/03/19 08:50 EGLF 180850Z AUTO 27008KT 240V300 9999 NCD 07/03 Q1020 W (270°) 9.2mph 7°C 3°C
18/03/19 08:20 EGLF 180820Z AUTO 25008KT 9999 NCD 06/03 Q1020 WSW (250°) 9.2mph 6°C 3°C
18/03/19 07:50 EGLF 180750Z AUTO 25008KT 230V290 9999 NCD 05/02 Q1020 WSW (250°) 9.2mph 5°C 2°C
18/03/19 07:20 EGLF 180720Z AUTO 25008KT 9999 NCD 04/02 Q1020 WSW (250°) 9.2mph 4°C 2°C
18/03/19 06:50 EGLF 180650Z AUTO 25007KT 9999 NCD 04/01 Q1019 WSW (250°) 8.1mph 4°C 1°C
18/03/19 06:20 EGLF 180620Z AUTO 25007KT 9999 NCD 03/01 Q1019 WSW (250°) 8.1mph 3°C 1°C
18/03/19 05:50 EGLF 180550Z AUTO 26008KT 9999 NCD 04/01 Q1019 W (260°) 9.2mph 4°C 1°C
18/03/19 05:20 EGLF 180520Z AUTO 26007KT 9999 NCD 03/01 Q1018 W (260°) 8.1mph 3°C 1°C
18/03/19 04:50 EGLF 180450Z AUTO 26007KT 9999 NCD 04/01 Q1018 W (260°) 8.1mph 4°C 1°C
18/03/19 04:20 EGLF 180420Z AUTO 27005KT 240V300 9999 NCD 04/01 Q1018 W (270°) 5.8mph 4°C 1°C
18/03/19 03:50 EGLF 180350Z AUTO 26006KT 9999 NCD 04/01 Q1017 W (260°) 6.9mph 4°C 1°C
18/03/19 03:20 EGLF 180320Z AUTO 25006KT 9999 NCD 04/01 Q1017 WSW (250°) 6.9mph 4°C 1°C
18/03/19 02:50 EGLF 180250Z AUTO 25007KT 9999 NCD 04/01 Q1017 WSW (250°) 8.1mph 4°C 1°C
18/03/19 02:20 EGLF 180220Z AUTO 25006KT 9999 NCD 02/01 Q1017 WSW (250°) 6.9mph 2°C 1°C
18/03/19 01:50 EGLF 180150Z AUTO 25006KT 9999 FEW030/// 04/01 Q1017 WSW (250°) 6.9mph 4°C 1°C
18/03/19 01:20 EGLF 180120Z AUTO 27005KT 250V310 9999 NCD 04/01 Q1016 W (270°) 5.8mph 4°C 1°C
18/03/19 00:50 EGLF 180050Z AUTO 25005KT 9999 NCD 03/00 Q1016 WSW (250°) 5.8mph 3°C 0°C
18/03/19 00:20 EGLF 180020Z AUTO 25007KT 9999 FEW029/// 04/01 Q1015 WSW (250°) 8.1mph 4°C 1°C
17/03/19 23:50 EGLF 172350Z AUTO 28004KT 250V320 9999 BKN030/// 06/02 Q1015 W (280°) 4.6mph 6°C 2°C
17/03/19 23:20 EGLF 172320Z AUTO 28007KT 250V310 9999 NCD 06/02 Q1015 W (280°) 8.1mph 6°C 2°C
17/03/19 22:50 EGLF 172250Z AUTO 28004KT 240V320 9999 SCT034/// 05/02 Q1014 W (280°) 4.6mph 5°C 2°C
17/03/19 22:20 EGLF 172220Z AUTO 28007KT 240V310 9999 FEW040/// SCT046/// 06/02 Q1014 W (280°) 8.1mph 6°C 2°C
17/03/19 21:50 EGLF 172150Z AUTO 27008KT 9999 FEW036/// 06/02 Q1013 W (270°) 9.2mph 6°C 2°C
17/03/19 21:20 EGLF 172120Z AUTO 27006KT 9999 NCD 05/02 Q1013 W (270°) 6.9mph 5°C 2°C
17/03/19 20:50 EGLF 172050Z AUTO 26006KT 9999 NCD 05/02 Q1012 W (260°) 6.9mph 5°C 2°C
17/03/19 20:20 EGLF 172020Z AUTO 27008KT 240V300 9999 FEW048/// 06/03 Q1012 W (270°) 9.2mph 6°C 3°C
17/03/19 19:50 EGLF 171950Z AUTO 26009KT 230V300 9999 SCT030/// BKN047/// 06/03 Q1011 W (260°) 10.4mph 6°C 3°C
17/03/19 19:20 EGLF 171920Z AUTO 26010KT 9999 FEW025/// SCT032/// BKN039/// 06/02 Q1011 W (260°) 11.5mph 6°C 2°C
17/03/19 18:20 EGLF 171820Z AUTO 27008KT 240V300 9999 SCT029/// 06/02 Q1010 W (270°) 9.2mph 6°C 2°C
17/03/19 17:50 EGLF 171750Z AUTO 26015KT 9999 FEW033/// 07/01 Q1010 W (260°) 17.3mph 7°C 1°C
17/03/19 17:20 EGLF 171720Z 26017KT 9999 FEW025 07/01 Q1009 W (260°) 19.6mph 7°C 1°C
17/03/19 16:50 EGLF 171650Z 26010KT 9999 FEW015 SCT028 07/02 Q1008 W (260°) 11.5mph 7°C 2°C
17/03/19 16:20 EGLF 171620Z 28013KT 240V310 9999 -DZ FEW015 SCT039 08/01 Q1008 -DZ W (280°) 15.0mph 8°C 1°C
17/03/19 15:50 EGLF 171550Z 28012KT 240V320 9999 VCSH FEW015 SCT039 07/01 Q1008 VCSH W (280°) 13.8mph 7°C 1°C
17/03/19 14:50 EGLF 171450Z 27015KT 9999 VCSH SCT038CB 09/M02 Q1007 VCSH W (270°) 17.3mph 9°C -2°C
17/03/19 14:20 EGLF 171420Z 25018KT 9999 SCT049 10/M02 Q1007 WSW (250°) 20.7mph 10°C -2°C
17/03/19 13:50 EGLF 171350Z 26016KT 230V310 9999 VCSH SCT044CB 09/M02 Q1007 VCSH W (260°) 18.4mph 9°C -2°C
17/03/19 13:20 EGLF 171320Z 26015G25KT 230V310 9999 VCSH SCT044 09/M02 Q1007 VCSH W (260°) 17.3mph 28.8mph 9°C -2°C
17/03/19 12:50 EGLF 171250Z 27012G23KT 240V310 9999 SCT044 08/M02 Q1007 W (270°) 13.8mph 26.5mph 8°C -2°C
17/03/19 12:20 EGLF 171220Z 27015KT 240V300 9999 BKN044 08/M02 Q1007 W (270°) 17.3mph 8°C -2°C
17/03/19 11:50 EGLF 171150Z 29010KT 250V320 9999 SCT040 07/M02 Q1006 WNW (290°) 11.5mph 7°C -2°C
17/03/19 11:20 EGLF 171120Z 27014KT 9999 SCT035 08/M01 Q1006 W (270°) 16.1mph 8°C -1°C
17/03/19 10:50 EGLF 171050Z 26014G25KT 230V300 9999 SCT034 08/00 Q1006 W (260°) 16.1mph 28.8mph 8°C 0°C
17/03/19 10:20 EGLF 171020Z AUTO 27012KT 250V310 9999 SCT027/// SCT033/// BKN041/// 06/00 Q1006 W (270°) 13.8mph 6°C 0°C
17/03/19 09:50 EGLF 170950Z AUTO 26013G23KT 230V300 9999 FEW025/// 07/01 Q1005 W (260°) 15.0mph 26.5mph 7°C 1°C
17/03/19 09:20 EGLF 170920Z AUTO 26013KT 230V290 9999 FEW020/// 06/02 Q1005 W (260°) 15.0mph 6°C 2°C
17/03/19 08:50 EGLF 170850Z AUTO 25011KT 9999 NCD 05/02 Q1004 WSW (250°) 12.7mph 5°C 2°C
17/03/19 08:20 EGLF 170820Z AUTO 26011KT 9999 NCD 05/02 Q1004 W (260°) 12.7mph 5°C 2°C
17/03/19 07:50 EGLF 170750Z AUTO 25011KT 9999 NCD 04/02 Q1004 WSW (250°) 12.7mph 4°C 2°C
17/03/19 07:20 EGLF 170720Z AUTO 25011KT 9999 NCD 04/02 Q1003 WSW (250°) 12.7mph 4°C 2°C
17/03/19 06:50 EGLF 170650Z AUTO 25009KT 9999 NCD 04/01 Q1002 WSW (250°) 10.4mph 4°C 1°C
17/03/19 06:20 EGLF 170620Z AUTO 25011KT 9999 NCD 03/01 Q1002 WSW (250°) 12.7mph 3°C 1°C
17/03/19 05:50 EGLF 170550Z AUTO 25009KT 9999 NCD 03/02 Q1001 WSW (250°) 10.4mph 3°C 2°C
17/03/19 05:20 EGLF 170520Z AUTO 25008KT 9999 FEW026/// 04/02 Q1001 WSW (250°) 9.2mph 4°C 2°C
17/03/19 04:50 EGLF 170450Z AUTO 25010KT 9999 FEW027/// 04/02 Q1000 WSW (250°) 11.5mph 4°C 2°C
17/03/19 04:20 EGLF 170420Z AUTO 25010KT 9999 NCD 05/02 Q1000 WSW (250°) 11.5mph 5°C 2°C
17/03/19 03:50 EGLF 170350Z AUTO 26011KT 9999 NCD 05/02 Q1000 W (260°) 12.7mph 5°C 2°C
17/03/19 03:20 EGLF 170320Z AUTO 25013KT 9999 NCD 05/02 Q0999 WSW (250°) 15.0mph 5°C 2°C
17/03/19 02:50 EGLF 170250Z AUTO 26011KT 230V290 9999 NCD 05/03 Q0999 W (260°) 12.7mph 5°C 3°C
17/03/19 02:20 EGLF 170220Z AUTO 25013KT 9999 NCD 05/03 Q0998 WSW (250°) 15.0mph 5°C 3°C
17/03/19 01:50 EGLF 170150Z AUTO 25010KT 9999 NCD 06/03 Q0998 WSW (250°) 11.5mph 6°C 3°C
17/03/19 01:20 EGLF 170120Z AUTO 25012KT 9999 FEW016/// 06/04 Q0998 WSW (250°) 13.8mph 6°C 4°C
17/03/19 00:50 EGLF 170050Z AUTO 25013KT 9999 FEW019/// 06/04 Q0998 WSW (250°) 15.0mph 6°C 4°C
17/03/19 00:20 EGLF 170020Z AUTO 24010KT 9999 FEW017/// BKN033/// 07/05 Q0997 REDZ WSW (240°) 11.5mph 7°C 5°C
16/03/19 23:20 EGLF 162320Z AUTO 25013KT 9999 FEW028/// 07/04 Q0997 WSW (250°) 15.0mph 7°C 4°C
16/03/19 22:50 EGLF 162250Z AUTO 26015KT 230V290 9999 -DZ FEW014/// SCT024/// 08/06 Q0996 -DZ W (260°) 17.3mph 8°C 6°C
16/03/19 22:20 EGLF 162220Z AUTO 24012KT 9999 -DZ FEW013/// BKN018/// BKN048/// 08/06 Q0996 -DZ WSW (240°) 13.8mph 8°C 6°C
16/03/19 21:20 EGLF 162120Z AUTO 24014KT 9999 -RA FEW000/// BKN009/// 08/06 Q0996 RERA -RA WSW (240°) 16.1mph 8°C 6°C
16/03/19 20:50 EGLF 162050Z AUTO 21019KT 8000 -RA FEW001/// BKN011/// 10/08 Q0995 -RA SSW (210°) 21.9mph 10°C 8°C
16/03/19 20:20 EGLF 162020Z AUTO 21022G34KT 6000 -RA SCT003/// BKN008/// BKN013/// 09/08 Q0996 -RA SSW (210°) 25.3mph 39.1mph 9°C 8°C
16/03/19 19:50 EGLF 161950Z 21023G34KT 5000 -DZRA BKN009 09/08 Q0996 -DZ -RA SSW (210°) 26.5mph 39.1mph 9°C 8°C
16/03/19 19:20 EGLF 161920Z 20019KT 5000 -DZRA BKN009 09/08 Q0996 -DZ -RA SSW (200°) 21.9mph 9°C 8°C
16/03/19 18:50 EGLF 161850Z 21019G29KT 170V230 5000 -DZRA BKN006 09/08 Q0997 REDZ -DZ -RA SSW (210°) 21.9mph 33.4mph 9°C 8°C
16/03/19 18:20 EGLF 161820Z AUTO 21019G29KT 180V240 5000 DZ FEW000/// SCT005/// BKN009/// 09/08 Q0997 DZ SSW (210°) 21.9mph 33.4mph 9°C 8°C
16/03/19 17:20 EGLF 161720Z AUTO 21021G37KT 7000 -DZ BKN012/// OVC016/// 10/07 Q0998 -DZ SSW (210°) 24.2mph 42.6mph 10°C 7°C
16/03/19 16:50 EGLF 161650Z AUTO 22023KT 190V250 9999 OVC017/// 10/07 Q0999 SW (220°) 26.5mph 10°C 7°C
16/03/19 15:50 EGLF 161550Z AUTO 21022G32KT 9999 OVC022/// 11/06 Q0999 SSW (210°) 25.3mph 36.8mph 11°C 6°C
16/03/19 15:20 EGLF 161520Z AUTO 21025G36KT 9999 BKN022/// OVC029/// 11/06 Q0999 SSW (210°) 28.8mph 41.4mph 11°C 6°C
16/03/19 14:20 EGLF 161420Z AUTO 22022G35KT 180V240 9999 BKN022/// OVC031/// 11/06 Q1001 SW (220°) 25.3mph 40.3mph 11°C 6°C
16/03/19 13:50 EGLF 161350Z 22026G37KT 9999 BKN020 BKN031 11/07 Q1001 SW (220°) 29.9mph 42.6mph 11°C 7°C
16/03/19 13:20 EGLF 161320Z 22026KT 9999 SCT008 BKN022 BKN033 11/07 Q1002 SW (220°) 29.9mph 11°C 7°C
16/03/19 12:50 EGLF 161250Z AUTO 22025G38KT 9999 FEW006/// SCT031/// 11/07 Q1002 SW (220°) 28.8mph 43.7mph 11°C 7°C
16/03/19 12:20 EGLF 161220Z 22023G37KT 9999 -DZ FEW010 BKN015 BKN023 11/07 Q1003 -DZ SW (220°) 26.5mph 42.6mph 11°C 7°C
16/03/19 11:50 EGLF 161150Z 23024KT 9999 -DZ FEW011/// BKN023/// 11/07 Q1003 -DZ SW (230°) 27.6mph 11°C 7°C
16/03/19 11:20 EGLF 161120Z AUTO 23024G38KT 9999 SCT016/// BKN026/// OVC030/// 11/07 Q1003 SW (230°) 27.6mph 43.7mph 11°C 7°C
16/03/19 10:50 EGLF 161050Z AUTO 23023KT 9999 FEW003/// BKN021/// 10/07 Q1004 REDZ SW (230°) 26.5mph 10°C 7°C
16/03/19 10:20 EGLF 161020Z AUTO 22023KT 7000 -DZ FEW007/// SCT016/// BKN021/// 10/07 Q1004 -DZ SW (220°) 26.5mph 10°C 7°C
16/03/19 09:50 EGLF 160950Z AUTO 23029G40KT 9999 BKN021/// OVC027/// 11/06 Q1004 SW (230°) 33.4mph 46.0mph 11°C 6°C
16/03/19 09:20 EGLF 160920Z AUTO 23021G34KT 9999 -DZ BKN019/// OVC028/// 11/06 Q1005 -DZ SW (230°) 24.2mph 39.1mph 11°C 6°C
16/03/19 08:50 EGLF 160850Z AUTO 23024G36KT 9999 OVC021/// 11/06 Q1005 SW (230°) 27.6mph 41.4mph 11°C 6°C
16/03/19 07:50 EGLF 160750Z AUTO 23018KT 9999 BKN014/// OVC024/// 10/07 Q1005 SW (230°) 20.7mph 10°C 7°C
16/03/19 07:20 EGLF 160720Z AUTO 23018G29KT 9999 BKN010/// OVC017/// 10/08 Q1006 SW (230°) 20.7mph 33.4mph 10°C 8°C
16/03/19 06:50 EGLF 160650Z AUTO 23019KT 9999 OVC015/// 10/08 Q1006 SW (230°) 21.9mph 10°C 8°C
16/03/19 06:20 EGLF 160620Z AUTO 23023KT 9999 OVC016/// 10/07 Q1006 SW (230°) 26.5mph 10°C 7°C
16/03/19 05:50 EGLF 160550Z AUTO 23025G35KT 9999 OVC014/// 10/07 Q1006 SW (230°) 28.8mph 40.3mph 10°C 7°C
16/03/19 05:20 EGLF 160520Z AUTO 23023KT 9999 OVC013/// 10/08 Q1006 SW (230°) 26.5mph 10°C 8°C
16/03/19 04:50 EGLF 160450Z AUTO 23022KT 9999 OVC014/// 10/08 Q1007 SW (230°) 25.3mph 10°C 8°C
16/03/19 04:20 EGLF 160420Z AUTO 23018KT 9999 OVC013/// 10/08 Q1007 SW (230°) 20.7mph 10°C 8°C
16/03/19 03:50 EGLF 160350Z AUTO 22020KT 9999 OVC014/// 10/08 Q1008 SW (220°) 23.0mph 10°C 8°C
16/03/19 03:20 EGLF 160320Z AUTO 22017KT 9999 OVC013/// 10/08 Q1008 REDZ SW (220°) 19.6mph 10°C 8°C
16/03/19 02:50 EGLF 160250Z AUTO 22018KT 6000 DZ FEW001/// BKN014/// 10/08 Q1008 DZ SW (220°) 20.7mph 10°C 8°C
16/03/19 02:20 EGLF 160220Z AUTO 22020KT 9999 BKN016/// 11/08 Q1008 SW (220°) 23.0mph 11°C 8°C
16/03/19 01:50 EGLF 160150Z AUTO 22019KT 9999 BKN015/// 11/08 Q1009 SW (220°) 21.9mph 11°C 8°C
16/03/19 01:20 EGLF 160120Z AUTO 22017KT 9999 BKN014/// 11/09 Q1009 SW (220°) 19.6mph 11°C 9°C
16/03/19 00:50 EGLF 160050Z AUTO 22017KT 9999 BKN010/// OVC016/// 11/09 Q1010 SW (220°) 19.6mph 11°C 9°C
16/03/19 00:20 EGLF 160020Z AUTO 22014KT 9999 OVC008/// 11/09 Q1010 SW (220°) 16.1mph 11°C 9°C
15/03/19 23:50 EGLF 152350Z AUTO 22014KT 6000 -DZ FEW001/// SCT006/// OVC009/// 11/09 Q1010 REDZ -DZ SW (220°) 16.1mph 11°C 9°C
15/03/19 23:20 EGLF 152320Z AUTO 23014KT 9999 FEW005 OVC008 11/10 Q1010 SW (230°) 16.1mph 11°C 10°C
15/03/19 22:50 EGLF 152250Z AUTO 23009KT 9999 BKN005 OVC008 10/09 Q1010 SW (230°) 10.4mph 10°C 9°C
15/03/19 22:20 EGLF 152220Z AUTO 24009KT 8000 OVC005/// 10/09 Q1011 WSW (240°) 10.4mph 10°C 9°C